sensor_id;sensor_type;location;lat;lon;timestamp;temperature;humidity
44647;DHT22;56315;-33.902;151.160;2023-06-10T00:02:10;23.70;95.00
44647;DHT22;56315;-33.902;151.160;2023-06-10T00:04:37;23.30;95.70
44647;DHT22;56315;-33.902;151.160;2023-06-10T00:07:05;23.70;95.00
44647;DHT22;56315;-33.902;151.160;2023-06-10T00:09:38;23.70;95.20
44647;DHT22;56315;-33.902;151.160;2023-06-10T00:12:06;23.80;93.90
44647;DHT22;56315;-33.902;151.160;2023-06-10T00:14:36;24.00;93.90
44647;DHT22;56315;-33.902;151.160;2023-06-10T00:17:03;24.10;94.30
44647;DHT22;56315;-33.902;151.160;2023-06-10T00:19:31;23.10;94.30
44647;DHT22;56315;-33.902;151.160;2023-06-10T00:21:58;23.70;93.70
44647;DHT22;56315;-33.902;151.160;2023-06-10T00:24:25;23.00;94.50
44647;DHT22;56315;-33.902;151.160;2023-06-10T00:26:52;22.60;94.50
44647;DHT22;56315;-33.902;151.160;2023-06-10T00:29:20;24.40;93.20
44647;DHT22;56315;-33.902;151.160;2023-06-10T00:31:47;25.30;92.10
44647;DHT22;56315;-33.902;151.160;2023-06-10T00:34:14;24.00;93.00
44647;DHT22;56315;-33.902;151.160;2023-06-10T00:36:42;24.50;92.00
44647;DHT22;56315;-33.902;151.160;2023-06-10T00:39:09;24.50;92.40
44647;DHT22;56315;-33.902;151.160;2023-06-10T00:41:36;24.80;91.80
44647;DHT22;56315;-33.902;151.160;2023-06-10T00:44:04;25.20;91.80
44647;DHT22;56315;-33.902;151.160;2023-06-10T00:46:31;24.70;90.50
44647;DHT22;56315;-33.902;151.160;2023-06-10T00:49:00;25.40;90.10
44647;DHT22;56315;-33.902;151.160;2023-06-10T00:51:27;25.60;90.00
44647;DHT22;56315;-33.902;151.160;2023-06-10T00:53:55;24.70;90.70
44647;DHT22;56315;-33.902;151.160;2023-06-10T00:56:23;25.10;90.40
44647;DHT22;56315;-33.902;151.160;2023-06-10T00:58:50;24.60;90.40
44647;DHT22;56315;-33.902;151.160;2023-06-10T01:01:18;23.80;90.50
44647;DHT22;56315;-33.902;151.160;2023-06-10T01:03:46;24.50;90.60
44647;DHT22;56315;-33.902;151.160;2023-06-10T01:09:06;25.00;89.80
44647;DHT22;56315;-33.902;151.160;2023-06-10T01:11:46;24.80;90.20
44647;DHT22;56315;-33.902;151.160;2023-06-10T01:14:14;25.00;89.20
44647;DHT22;56315;-33.902;151.160;2023-06-10T01:16:43;25.50;88.20
44647;DHT22;56315;-33.902;151.160;2023-06-10T01:19:12;24.70;89.50
44647;DHT22;56315;-33.902;151.160;2023-06-10T01:21:44;25.40;89.40
44647;DHT22;56315;-33.902;151.160;2023-06-10T01:24:15;26.00;86.40
44647;DHT22;56315;-33.902;151.160;2023-06-10T01:26:46;25.00;88.30
44647;DHT22;56315;-33.902;151.160;2023-06-10T01:29:28;25.50;88.70
44647;DHT22;56315;-33.902;151.160;2023-06-10T01:34:50;25.70;87.10
44647;DHT22;56315;-33.902;151.160;2023-06-10T01:37:19;25.60;88.40
44647;DHT22;56315;-33.902;151.160;2023-06-10T01:39:49;25.00;86.40
44647;DHT22;56315;-33.902;151.160;2023-06-10T01:42:16;25.30;86.50
44647;DHT22;56315;-33.902;151.160;2023-06-10T01:44:44;26.10;86.90
44647;DHT22;56315;-33.902;151.160;2023-06-10T01:47:11;25.60;86.60
44647;DHT22;56315;-33.902;151.160;2023-06-10T01:49:38;24.60;85.60
44647;DHT22;56315;-33.902;151.160;2023-06-10T01:52:06;24.50;88.50
44647;DHT22;56315;-33.902;151.160;2023-06-10T01:54:33;25.30;87.50
44647;DHT22;56315;-33.902;151.160;2023-06-10T01:57:03;25.70;87.10
44647;DHT22;56315;-33.902;151.160;2023-06-10T01:59:32;26.70;86.00
44647;DHT22;56315;-33.902;151.160;2023-06-10T02:01:59;27.30;84.60
44647;DHT22;56315;-33.902;151.160;2023-06-10T02:04:27;26.30;84.00
44647;DHT22;56315;-33.902;151.160;2023-06-10T02:06:54;25.80;84.90
44647;DHT22;56315;-33.902;151.160;2023-06-10T02:09:22;26.40;83.50
44647;DHT22;56315;-33.902;151.160;2023-06-10T02:11:49;26.30;86.00
44647;DHT22;56315;-33.902;151.160;2023-06-10T02:14:16;26.50;82.70
44647;DHT22;56315;-33.902;151.160;2023-06-10T02:16:44;25.50;82.50
44647;DHT22;56315;-33.902;151.160;2023-06-10T02:19:13;26.20;83.70
44647;DHT22;56315;-33.902;151.160;2023-06-10T02:21:40;26.30;83.00
44647;DHT22;56315;-33.902;151.160;2023-06-10T02:24:08;26.20;82.50
44647;DHT22;56315;-33.902;151.160;2023-06-10T02:26:35;24.90;82.40
44647;DHT22;56315;-33.902;151.160;2023-06-10T02:29:02;22.90;86.70
44647;DHT22;56315;-33.902;151.160;2023-06-10T02:31:30;23.40;87.40
44647;DHT22;56315;-33.902;151.160;2023-06-10T02:33:57;25.20;85.10
44647;DHT22;56315;-33.902;151.160;2023-06-10T02:36:24;25.80;83.10
44647;DHT22;56315;-33.902;151.160;2023-06-10T02:38:54;25.20;82.30
44647;DHT22;56315;-33.902;151.160;2023-06-10T02:41:21;25.00;82.80
44647;DHT22;56315;-33.902;151.160;2023-06-10T02:43:49;25.10;83.20
44647;DHT22;56315;-33.902;151.160;2023-06-10T02:46:16;24.60;82.50
44647;DHT22;56315;-33.902;151.160;2023-06-10T02:48:45;25.80;81.40
44647;DHT22;56315;-33.902;151.160;2023-06-10T02:51:12;26.80;80.30
44647;DHT22;56315;-33.902;151.160;2023-06-10T02:53:39;26.00;80.10
44647;DHT22;56315;-33.902;151.160;2023-06-10T02:56:07;26.80;79.70
44647;DHT22;56315;-33.902;151.160;2023-06-10T02:58:34;27.70;81.60
44647;DHT22;56315;-33.902;151.160;2023-06-10T03:01:01;28.40;79.20
44647;DHT22;56315;-33.902;151.160;2023-06-10T03:03:29;28.30;78.30
44647;DHT22;56315;-33.902;151.160;2023-06-10T03:05:56;28.30;80.90
44647;DHT22;56315;-33.902;151.160;2023-06-10T03:08:25;29.00;77.60
44647;DHT22;56315;-33.902;151.160;2023-06-10T03:10:52;28.60;78.00
44647;DHT22;56315;-33.902;151.160;2023-06-10T03:13:19;26.80;77.70
44647;DHT22;56315;-33.902;151.160;2023-06-10T03:15:48;27.00;78.00
44647;DHT22;56315;-33.902;151.160;2023-06-10T03:18:15;25.70;79.30
44647;DHT22;56315;-33.902;151.160;2023-06-10T03:20:42;25.10;81.90
44647;DHT22;56315;-33.902;151.160;2023-06-10T03:23:11;26.80;80.70
44647;DHT22;56315;-33.902;151.160;2023-06-10T03:25:38;25.00;80.80
44647;DHT22;56315;-33.902;151.160;2023-06-10T03:28:05;24.50;82.40
44647;DHT22;56315;-33.902;151.160;2023-06-10T03:30:32;26.30;80.70
44647;DHT22;56315;-33.902;151.160;2023-06-10T03:32:59;26.80;80.40
44647;DHT22;56315;-33.902;151.160;2023-06-10T03:35:27;25.80;80.50
44647;DHT22;56315;-33.902;151.160;2023-06-10T03:37:54;26.10;80.40
44647;DHT22;56315;-33.902;151.160;2023-06-10T03:40:21;24.80;80.70
44647;DHT22;56315;-33.902;151.160;2023-06-10T03:42:48;25.30;81.10
44647;DHT22;56315;-33.902;151.160;2023-06-10T03:45:15;25.00;80.40
44647;DHT22;56315;-33.902;151.160;2023-06-10T03:47:43;24.90;80.00
44647;DHT22;56315;-33.902;151.160;2023-06-10T03:50:10;24.30;82.40
44647;DHT22;56315;-33.902;151.160;2023-06-10T03:52:38;24.70;81.20
44647;DHT22;56315;-33.902;151.160;2023-06-10T03:55:07;25.00;80.90
44647;DHT22;56315;-33.902;151.160;2023-06-10T03:57:35;26.10;80.10
44647;DHT22;56315;-33.902;151.160;2023-06-10T04:00:02;25.80;79.90
44647;DHT22;56315;-33.902;151.160;2023-06-10T04:02:34;24.70;80.70
44647;DHT22;56315;-33.902;151.160;2023-06-10T04:05:03;25.10;80.50
44647;DHT22;56315;-33.902;151.160;2023-06-10T04:07:31;24.90;80.80
44647;DHT22;56315;-33.902;151.160;2023-06-10T04:09:58;24.90;80.70
44647;DHT22;56315;-33.902;151.160;2023-06-10T04:12:26;24.60;81.10
44647;DHT22;56315;-33.902;151.160;2023-06-10T04:14:53;23.20;83.70
44647;DHT22;56315;-33.902;151.160;2023-06-10T04:17:20;21.00;85.80
44647;DHT22;56315;-33.902;151.160;2023-06-10T04:19:47;19.80;89.90
44647;DHT22;56315;-33.902;151.160;2023-06-10T04:22:15;19.20;89.80
44647;DHT22;56315;-33.902;151.160;2023-06-10T04:24:42;19.00;90.70
44647;DHT22;56315;-33.902;151.160;2023-06-10T04:27:09;19.00;90.60
44647;DHT22;56315;-33.902;151.160;2023-06-10T04:29:36;18.90;90.30
44647;DHT22;56315;-33.902;151.160;2023-06-10T04:32:04;18.60;90.80
44647;DHT22;56315;-33.902;151.160;2023-06-10T04:34:37;18.60;91.30
44647;DHT22;56315;-33.902;151.160;2023-06-10T04:37:06;18.70;90.70
44647;DHT22;56315;-33.902;151.160;2023-06-10T04:39:33;18.90;91.80
44647;DHT22;56315;-33.902;151.160;2023-06-10T04:42:01;18.50;90.60
44647;DHT22;56315;-33.902;151.160;2023-06-10T04:44:28;18.40;91.30
44647;DHT22;56315;-33.902;151.160;2023-06-10T04:46:57;18.40;91.30
44647;DHT22;56315;-33.902;151.160;2023-06-10T04:49:24;18.20;91.80
44647;DHT22;56315;-33.902;151.160;2023-06-10T04:51:52;18.00;92.20
44647;DHT22;56315;-33.902;151.160;2023-06-10T04:54:19;17.90;92.80
44647;DHT22;56315;-33.902;151.160;2023-06-10T04:56:46;17.90;92.70
44647;DHT22;56315;-33.902;151.160;2023-06-10T04:59:13;18.00;93.20
44647;DHT22;56315;-33.902;151.160;2023-06-10T05:01:41;18.10;93.10
44647;DHT22;56315;-33.902;151.160;2023-06-10T05:04:08;17.90;92.80
44647;DHT22;56315;-33.902;151.160;2023-06-10T05:06:35;17.80;92.50
44647;DHT22;56315;-33.902;151.160;2023-06-10T05:09:03;17.70;93.50
44647;DHT22;56315;-33.902;151.160;2023-06-10T05:11:30;17.50;93.20
44647;DHT22;56315;-33.902;151.160;2023-06-10T05:13:57;17.50;92.80
44647;DHT22;56315;-33.902;151.160;2023-06-10T05:16:25;17.20;93.60
44647;DHT22;56315;-33.902;151.160;2023-06-10T05:18:52;17.20;93.60
44647;DHT22;56315;-33.902;151.160;2023-06-10T05:21:19;17.10;93.60
44647;DHT22;56315;-33.902;151.160;2023-06-10T05:23:47;17.00;93.40
44647;DHT22;56315;-33.902;151.160;2023-06-10T05:26:14;16.90;94.20
44647;DHT22;56315;-33.902;151.160;2023-06-10T05:28:42;16.90;92.80
44647;DHT22;56315;-33.902;151.160;2023-06-10T05:31:10;16.90;94.40
44647;DHT22;56315;-33.902;151.160;2023-06-10T05:33:37;16.80;94.50
44647;DHT22;56315;-33.902;151.160;2023-06-10T05:36:04;16.70;94.60
44647;DHT22;56315;-33.902;151.160;2023-06-10T05:38:32;16.60;95.50
44647;DHT22;56315;-33.902;151.160;2023-06-10T05:40:59;16.50;95.20
44647;DHT22;56315;-33.902;151.160;2023-06-10T05:43:26;16.50;95.80
44647;DHT22;56315;-33.902;151.160;2023-06-10T05:45:53;16.50;96.60
44647;DHT22;56315;-33.902;151.160;2023-06-10T05:48:21;16.50;95.90
44647;DHT22;56315;-33.902;151.160;2023-06-10T05:50:48;16.40;96.00
44647;DHT22;56315;-33.902;151.160;2023-06-10T05:53:16;16.30;97.00
44647;DHT22;56315;-33.902;151.160;2023-06-10T05:55:44;16.30;96.90
44647;DHT22;56315;-33.902;151.160;2023-06-10T05:58:12;16.20;97.50
44647;DHT22;56315;-33.902;151.160;2023-06-10T06:00:40;16.00;98.10
44647;DHT22;56315;-33.902;151.160;2023-06-10T06:03:10;15.80;98.20
44647;DHT22;56315;-33.902;151.160;2023-06-10T06:05:38;15.70;98.30
44647;DHT22;56315;-33.902;151.160;2023-06-10T06:08:06;15.60;99.90
44647;DHT22;56315;-33.902;151.160;2023-06-10T06:10:33;15.50;99.00
44647;DHT22;56315;-33.902;151.160;2023-06-10T06:13:01;15.40;99.80
44647;DHT22;56315;-33.902;151.160;2023-06-10T06:15:28;15.20;99.90
44647;DHT22;56315;-33.902;151.160;2023-06-10T06:17:56;15.00;99.90
44647;DHT22;56315;-33.902;151.160;2023-06-10T06:20:23;14.90;99.90
44647;DHT22;56315;-33.902;151.160;2023-06-10T06:22:50;14.70;99.90
44647;DHT22;56315;-33.902;151.160;2023-06-10T06:25:17;14.60;99.90
44647;DHT22;56315;-33.902;151.160;2023-06-10T06:27:44;14.70;99.90
44647;DHT22;56315;-33.902;151.160;2023-06-10T06:30:12;14.90;99.90
44647;DHT22;56315;-33.902;151.160;2023-06-10T06:32:39;14.90;99.90
44647;DHT22;56315;-33.902;151.160;2023-06-10T06:35:06;14.70;99.90
44647;DHT22;56315;-33.902;151.160;2023-06-10T06:37:35;14.50;99.90
44647;DHT22;56315;-33.902;151.160;2023-06-10T06:40:02;14.40;99.90
44647;DHT22;56315;-33.902;151.160;2023-06-10T06:42:30;14.20;99.90
44647;DHT22;56315;-33.902;151.160;2023-06-10T06:44:57;14.00;99.90
44647;DHT22;56315;-33.902;151.160;2023-06-10T06:47:24;14.00;99.90
44647;DHT22;56315;-33.902;151.160;2023-06-10T06:49:52;13.80;99.90
44647;DHT22;56315;-33.902;151.160;2023-06-10T06:52:20;13.60;99.90
44647;DHT22;56315;-33.902;151.160;2023-06-10T06:54:48;13.40;99.90
44647;DHT22;56315;-33.902;151.160;2023-06-10T06:57:16;13.30;99.90
44647;DHT22;56315;-33.902;151.160;2023-06-10T06:59:43;13.10;99.90
44647;DHT22;56315;-33.902;151.160;2023-06-10T07:02:11;13.00;99.90
44647;DHT22;56315;-33.902;151.160;2023-06-10T07:04:38;12.90;99.90
44647;DHT22;56315;-33.902;151.160;2023-06-10T07:07:08;12.90;99.90
44647;DHT22;56315;-33.902;151.160;2023-06-10T07:09:37;12.80;99.90
44647;DHT22;56315;-33.902;151.160;2023-06-10T07:12:04;12.70;99.90
44647;DHT22;56315;-33.902;151.160;2023-06-10T07:14:32;12.60;99.90
44647;DHT22;56315;-33.902;151.160;2023-06-10T07:16:59;12.50;99.90
44647;DHT22;56315;-33.902;151.160;2023-06-10T07:19:26;12.50;99.90
44647;DHT22;56315;-33.902;151.160;2023-06-10T07:21:53;12.50;99.90
44647;DHT22;56315;-33.902;151.160;2023-06-10T07:24:20;12.40;99.90
44647;DHT22;56315;-33.902;151.160;2023-06-10T07:26:48;12.20;99.90
44647;DHT22;56315;-33.902;151.160;2023-06-10T07:29:15;12.10;99.90
44647;DHT22;56315;-33.902;151.160;2023-06-10T07:31:42;11.90;99.90
44647;DHT22;56315;-33.902;151.160;2023-06-10T07:34:09;11.80;99.90
44647;DHT22;56315;-33.902;151.160;2023-06-10T07:36:37;11.70;99.90
44647;DHT22;56315;-33.902;151.160;2023-06-10T07:39:05;11.70;99.90
44647;DHT22;56315;-33.902;151.160;2023-06-10T07:41:33;11.60;99.90
44647;DHT22;56315;-33.902;151.160;2023-06-10T07:44:00;11.50;99.90
44647;DHT22;56315;-33.902;151.160;2023-06-10T07:46:27;11.40;99.90
44647;DHT22;56315;-33.902;151.160;2023-06-10T07:48:55;11.40;99.90
44647;DHT22;56315;-33.902;151.160;2023-06-10T07:51:22;11.40;99.90
44647;DHT22;56315;-33.902;151.160;2023-06-10T07:53:49;11.30;99.90
44647;DHT22;56315;-33.902;151.160;2023-06-10T07:56:17;11.20;99.90
44647;DHT22;56315;-33.902;151.160;2023-06-10T07:58:44;11.10;99.90
44647;DHT22;56315;-33.902;151.160;2023-06-10T08:01:11;11.10;99.90
44647;DHT22;56315;-33.902;151.160;2023-06-10T08:03:38;11.00;99.90
44647;DHT22;56315;-33.902;151.160;2023-06-10T08:06:05;11.00;99.90
44647;DHT22;56315;-33.902;151.160;2023-06-10T08:08:32;11.00;99.90
44647;DHT22;56315;-33.902;151.160;2023-06-10T08:11:01;10.90;99.90
44647;DHT22;56315;-33.902;151.160;2023-06-10T08:13:28;10.80;99.90
44647;DHT22;56315;-33.902;151.160;2023-06-10T08:15:55;10.70;99.90
44647;DHT22;56315;-33.902;151.160;2023-06-10T08:18:22;10.70;99.90
44647;DHT22;56315;-33.902;151.160;2023-06-10T08:20:49;10.70;99.90
44647;DHT22;56315;-33.902;151.160;2023-06-10T08:23:16;10.60;99.90
44647;DHT22;56315;-33.902;151.160;2023-06-10T08:25:44;10.50;99.90
44647;DHT22;56315;-33.902;151.160;2023-06-10T08:28:11;10.40;99.90
44647;DHT22;56315;-33.902;151.160;2023-06-10T08:30:38;10.40;99.90
44647;DHT22;56315;-33.902;151.160;2023-06-10T08:33:05;10.40;99.90
44647;DHT22;56315;-33.902;151.160;2023-06-10T08:35:32;10.40;99.90
44647;DHT22;56315;-33.902;151.160;2023-06-10T08:38:00;10.30;99.90
44647;DHT22;56315;-33.902;151.160;2023-06-10T08:40:27;10.30;99.90
44647;DHT22;56315;-33.902;151.160;2023-06-10T08:43:07;10.20;99.90
44647;DHT22;56315;-33.902;151.160;2023-06-10T08:45:36;10.10;99.90
44647;DHT22;56315;-33.902;151.160;2023-06-10T08:48:04;10.10;99.90
44647;DHT22;56315;-33.902;151.160;2023-06-10T08:50:36;10.00;99.90
44647;DHT22;56315;-33.902;151.160;2023-06-10T08:53:06;10.00;99.90
44647;DHT22;56315;-33.902;151.160;2023-06-10T08:55:37;10.00;99.90
44647;DHT22;56315;-33.902;151.160;2023-06-10T08:58:05;10.00;99.90
44647;DHT22;56315;-33.902;151.160;2023-06-10T09:00:32;10.00;99.90
44647;DHT22;56315;-33.902;151.160;2023-06-10T09:03:01;10.00;99.90
44647;DHT22;56315;-33.902;151.160;2023-06-10T09:05:35;9.90;99.90
44647;DHT22;56315;-33.902;151.160;2023-06-10T09:08:06;9.90;99.90
44647;DHT22;56315;-33.902;151.160;2023-06-10T09:10:35;9.80;99.90
44647;DHT22;56315;-33.902;151.160;2023-06-10T09:13:02;9.70;99.90
44647;DHT22;56315;-33.902;151.160;2023-06-10T09:15:30;9.70;99.90
44647;DHT22;56315;-33.902;151.160;2023-06-10T09:17:57;9.70;99.90
44647;DHT22;56315;-33.902;151.160;2023-06-10T09:20:25;9.60;99.90
44647;DHT22;56315;-33.902;151.160;2023-06-10T09:22:53;9.60;99.90
44647;DHT22;56315;-33.902;151.160;2023-06-10T09:25:38;9.50;99.90
44647;DHT22;56315;-33.902;151.160;2023-06-10T09:28:13;9.50;99.90
44647;DHT22;56315;-33.902;151.160;2023-06-10T09:30:41;9.60;99.90
44647;DHT22;56315;-33.902;151.160;2023-06-10T09:33:13;9.60;99.90
44647;DHT22;56315;-33.902;151.160;2023-06-10T09:35:48;9.60;99.90
44647;DHT22;56315;-33.902;151.160;2023-06-10T09:38:20;9.50;99.90
44647;DHT22;56315;-33.902;151.160;2023-06-10T09:40:52;9.50;99.90
44647;DHT22;56315;-33.902;151.160;2023-06-10T09:43:20;9.60;99.90
44647;DHT22;56315;-33.902;151.160;2023-06-10T09:45:51;9.60;99.90
44647;DHT22;56315;-33.902;151.160;2023-06-10T09:48:21;9.40;99.90
44647;DHT22;56315;-33.902;151.160;2023-06-10T09:50:49;9.30;99.90
44647;DHT22;56315;-33.902;151.160;2023-06-10T09:53:17;9.30;99.90
44647;DHT22;56315;-33.902;151.160;2023-06-10T09:55:45;9.30;99.90
44647;DHT22;56315;-33.902;151.160;2023-06-10T09:58:12;9.20;99.90
44647;DHT22;56315;-33.902;151.160;2023-06-10T10:00:39;9.30;99.90
44647;DHT22;56315;-33.902;151.160;2023-06-10T10:03:06;9.40;99.90
44647;DHT22;56315;-33.902;151.160;2023-06-10T10:05:33;9.50;99.90
44647;DHT22;56315;-33.902;151.160;2023-06-10T10:08:01;9.30;99.90
44647;DHT22;56315;-33.902;151.160;2023-06-10T10:10:28;9.20;99.90
44647;DHT22;56315;-33.902;151.160;2023-06-10T10:12:56;9.20;99.90
44647;DHT22;56315;-33.902;151.160;2023-06-10T10:15:25;9.20;99.90
44647;DHT22;56315;-33.902;151.160;2023-06-10T10:18:06;9.20;99.90
44647;DHT22;56315;-33.902;151.160;2023-06-10T10:20:35;9.10;99.90
44647;DHT22;56315;-33.902;151.160;2023-06-10T10:23:05;9.10;99.90
44647;DHT22;56315;-33.902;151.160;2023-06-10T10:25:43;9.10;99.90
44647;DHT22;56315;-33.902;151.160;2023-06-10T10:28:12;9.00;99.90
44647;DHT22;56315;-33.902;151.160;2023-06-10T10:30:54;9.00;99.90
44647;DHT22;56315;-33.902;151.160;2023-06-10T10:33:40;8.90;99.90
44647;DHT22;56315;-33.902;151.160;2023-06-10T10:36:07;8.90;99.90
44647;DHT22;56315;-33.902;151.160;2023-06-10T10:38:36;8.90;99.90
44647;DHT22;56315;-33.902;151.160;2023-06-10T10:41:05;8.90;99.90
44647;DHT22;56315;-33.902;151.160;2023-06-10T10:43:33;8.90;99.90
44647;DHT22;56315;-33.902;151.160;2023-06-10T10:46:02;8.90;99.90
44647;DHT22;56315;-33.902;151.160;2023-06-10T10:48:39;8.80;99.90
44647;DHT22;56315;-33.902;151.160;2023-06-10T10:51:08;8.80;99.90
44647;DHT22;56315;-33.902;151.160;2023-06-10T10:53:38;8.80;99.90
44647;DHT22;56315;-33.902;151.160;2023-06-10T10:56:12;8.90;99.90
44647;DHT22;56315;-33.902;151.160;2023-06-10T10:58:39;8.80;99.90
44647;DHT22;56315;-33.902;151.160;2023-06-10T11:01:13;8.80;99.90
44647;DHT22;56315;-33.902;151.160;2023-06-10T11:03:47;8.70;99.90
44647;DHT22;56315;-33.902;151.160;2023-06-10T11:06:15;8.60;99.90
44647;DHT22;56315;-33.902;151.160;2023-06-10T11:11:26;8.60;99.90
44647;DHT22;56315;-33.902;151.160;2023-06-10T11:16:43;8.50;99.90
44647;DHT22;56315;-33.902;151.160;2023-06-10T11:19:12;8.50;99.90
44647;DHT22;56315;-33.902;151.160;2023-06-10T11:22:02;8.50;99.90
44647;DHT22;56315;-33.902;151.160;2023-06-10T11:24:32;8.50;99.90
44647;DHT22;56315;-33.902;151.160;2023-06-10T11:27:17;8.40;99.90
44647;DHT22;56315;-33.902;151.160;2023-06-10T11:32:32;8.50;99.90
44647;DHT22;56315;-33.902;151.160;2023-06-10T11:35:00;8.40;99.90
44647;DHT22;56315;-33.902;151.160;2023-06-10T11:37:29;8.40;99.90
44647;DHT22;56315;-33.902;151.160;2023-06-10T11:39:57;8.30;99.90
44647;DHT22;56315;-33.902;151.160;2023-06-10T11:42:25;8.30;99.90
44647;DHT22;56315;-33.902;151.160;2023-06-10T11:44:53;8.30;99.90
44647;DHT22;56315;-33.902;151.160;2023-06-10T11:47:21;8.30;99.90
44647;DHT22;56315;-33.902;151.160;2023-06-10T11:49:58;8.30;99.90
44647;DHT22;56315;-33.902;151.160;2023-06-10T11:52:29;8.30;99.90
44647;DHT22;56315;-33.902;151.160;2023-06-10T11:54:58;8.30;99.90
44647;DHT22;56315;-33.902;151.160;2023-06-10T11:57:26;8.30;99.90
44647;DHT22;56315;-33.902;151.160;2023-06-10T11:59:53;8.30;99.90
44647;DHT22;56315;-33.902;151.160;2023-06-10T12:02:21;8.20;99.90
44647;DHT22;56315;-33.902;151.160;2023-06-10T12:04:48;8.20;99.90
44647;DHT22;56315;-33.902;151.160;2023-06-10T12:07:19;8.20;99.90
44647;DHT22;56315;-33.902;151.160;2023-06-10T12:09:57;8.10;99.90
44647;DHT22;56315;-33.902;151.160;2023-06-10T12:12:25;8.10;99.90
44647;DHT22;56315;-33.902;151.160;2023-06-10T12:14:57;8.20;99.90
44647;DHT22;56315;-33.902;151.160;2023-06-10T12:17:37;8.20;99.90
44647;DHT22;56315;-33.902;151.160;2023-06-10T12:20:24;8.20;99.90
44647;DHT22;56315;-33.902;151.160;2023-06-10T12:22:52;8.10;99.90
44647;DHT22;56315;-33.902;151.160;2023-06-10T12:25:25;8.10;99.90
44647;DHT22;56315;-33.902;151.160;2023-06-10T12:27:55;8.00;99.90
44647;DHT22;56315;-33.902;151.160;2023-06-10T12:30:24;8.00;99.90
44647;DHT22;56315;-33.902;151.160;2023-06-10T12:32:53;8.00;99.90
44647;DHT22;56315;-33.902;151.160;2023-06-10T12:35:22;8.00;99.90
44647;DHT22;56315;-33.902;151.160;2023-06-10T12:38:21;7.90;99.90
44647;DHT22;56315;-33.902;151.160;2023-06-10T12:40:48;7.90;99.90
44647;DHT22;56315;-33.902;151.160;2023-06-10T12:43:20;7.90;99.90
44647;DHT22;56315;-33.902;151.160;2023-06-10T12:45:47;7.90;99.90
44647;DHT22;56315;-33.902;151.160;2023-06-10T12:48:24;7.90;99.90
44647;DHT22;56315;-33.902;151.160;2023-06-10T12:50:56;7.90;99.90
44647;DHT22;56315;-33.902;151.160;2023-06-10T12:53:24;7.90;99.90
44647;DHT22;56315;-33.902;151.160;2023-06-10T12:55:55;7.80;99.90
44647;DHT22;56315;-33.902;151.160;2023-06-10T12:58:24;7.80;99.90
44647;DHT22;56315;-33.902;151.160;2023-06-10T13:00:51;7.80;99.90
44647;DHT22;56315;-33.902;151.160;2023-06-10T13:03:21;7.70;99.90
44647;DHT22;56315;-33.902;151.160;2023-06-10T13:05:48;7.70;99.90
44647;DHT22;56315;-33.902;151.160;2023-06-10T13:08:15;7.70;99.90
44647;DHT22;56315;-33.902;151.160;2023-06-10T13:10:42;7.60;99.90
44647;DHT22;56315;-33.902;151.160;2023-06-10T13:13:10;7.50;99.90
44647;DHT22;56315;-33.902;151.160;2023-06-10T13:15:37;7.60;99.90
44647;DHT22;56315;-33.902;151.160;2023-06-10T13:18:04;7.50;99.90
44647;DHT22;56315;-33.902;151.160;2023-06-10T13:20:31;7.50;99.90
44647;DHT22;56315;-33.902;151.160;2023-06-10T13:22:59;7.50;99.90
44647;DHT22;56315;-33.902;151.160;2023-06-10T13:25:26;7.50;99.90
44647;DHT22;56315;-33.902;151.160;2023-06-10T13:27:53;7.50;99.90
44647;DHT22;56315;-33.902;151.160;2023-06-10T13:30:21;7.50;99.90
44647;DHT22;56315;-33.902;151.160;2023-06-10T13:32:48;7.50;99.90
44647;DHT22;56315;-33.902;151.160;2023-06-10T13:35:15;7.50;99.90
44647;DHT22;56315;-33.902;151.160;2023-06-10T13:37:42;7.60;99.90
44647;DHT22;56315;-33.902;151.160;2023-06-10T13:40:10;7.50;99.90
44647;DHT22;56315;-33.902;151.160;2023-06-10T13:42:37;7.60;99.90
44647;DHT22;56315;-33.902;151.160;2023-06-10T13:45:05;7.60;99.90
44647;DHT22;56315;-33.902;151.160;2023-06-10T13:47:32;7.60;99.90
44647;DHT22;56315;-33.902;151.160;2023-06-10T13:49:59;7.60;99.90
44647;DHT22;56315;-33.902;151.160;2023-06-10T13:52:26;7.60;99.90
44647;DHT22;56315;-33.902;151.160;2023-06-10T13:54:54;7.50;99.90
44647;DHT22;56315;-33.902;151.160;2023-06-10T13:57:21;7.50;99.90
44647;DHT22;56315;-33.902;151.160;2023-06-10T13:59:48;7.40;99.90
44647;DHT22;56315;-33.902;151.160;2023-06-10T14:02:16;7.40;99.90
44647;DHT22;56315;-33.902;151.160;2023-06-10T14:04:43;7.30;99.90
44647;DHT22;56315;-33.902;151.160;2023-06-10T14:07:10;7.30;99.90
44647;DHT22;56315;-33.902;151.160;2023-06-10T14:09:37;7.40;99.90
44647;DHT22;56315;-33.902;151.160;2023-06-10T14:12:05;7.30;99.90
44647;DHT22;56315;-33.902;151.160;2023-06-10T14:14:32;7.30;99.90
44647;DHT22;56315;-33.902;151.160;2023-06-10T14:17:00;7.30;99.90
44647;DHT22;56315;-33.902;151.160;2023-06-10T14:19:27;7.30;99.90
44647;DHT22;56315;-33.902;151.160;2023-06-10T14:21:54;7.40;99.90
44647;DHT22;56315;-33.902;151.160;2023-06-10T14:24:22;7.30;99.90
44647;DHT22;56315;-33.902;151.160;2023-06-10T14:26:50;7.30;99.90
44647;DHT22;56315;-33.902;151.160;2023-06-10T14:29:17;7.30;99.90
44647;DHT22;56315;-33.902;151.160;2023-06-10T14:31:45;7.20;99.90
44647;DHT22;56315;-33.902;151.160;2023-06-10T14:34:12;7.20;99.90
44647;DHT22;56315;-33.902;151.160;2023-06-10T14:36:40;7.20;99.90
44647;DHT22;56315;-33.902;151.160;2023-06-10T14:39:07;7.30;99.90
44647;DHT22;56315;-33.902;151.160;2023-06-10T14:41:34;7.20;99.90
44647;DHT22;56315;-33.902;151.160;2023-06-10T14:44:01;7.20;99.90
44647;DHT22;56315;-33.902;151.160;2023-06-10T14:46:29;7.10;99.90
44647;DHT22;56315;-33.902;151.160;2023-06-10T14:48:56;7.20;99.90
44647;DHT22;56315;-33.902;151.160;2023-06-10T14:51:25;7.20;99.90
44647;DHT22;56315;-33.902;151.160;2023-06-10T14:53:52;7.20;99.90
44647;DHT22;56315;-33.902;151.160;2023-06-10T14:56:20;7.20;99.90
44647;DHT22;56315;-33.902;151.160;2023-06-10T14:58:47;7.10;99.90
44647;DHT22;56315;-33.902;151.160;2023-06-10T15:01:14;7.20;99.90
44647;DHT22;56315;-33.902;151.160;2023-06-10T15:03:41;7.10;99.90
44647;DHT22;56315;-33.902;151.160;2023-06-10T15:06:08;7.20;99.90
44647;DHT22;56315;-33.902;151.160;2023-06-10T15:08:36;7.10;99.90
44647;DHT22;56315;-33.902;151.160;2023-06-10T15:11:03;7.00;99.90
44647;DHT22;56315;-33.902;151.160;2023-06-10T15:13:31;7.00;99.90
44647;DHT22;56315;-33.902;151.160;2023-06-10T15:15:58;7.00;99.90